Time;durP1;ratioP1;P1;durP2;ratioP2;P2;SDS_P1;SDS_P2;PMS_P1;PMS_P2;Temp;Humidity;BMP_temperature;BMP_pressure;BME280_temperature;BME280_humidity;BME280_pressure;Samples;Min_cycle;Max_cycle;Signal;HPM_P1;HPM_P2
2023/05/18 00:01:39;;;;;;;3.90;0.60;;;;;;;;;;5281024;28;20032;-71
2023/05/18 00:04:10;;;;;;;7.00;0.88;;;;;;;;;;5281793;28;20111;-71
2023/05/18 00:06:41;;;;;;;3.60;0.90;;;;;;;;;;5280111;28;20100;-71
2023/05/18 00:09:13;;;;;;;6.00;0.85;;;;;;;;;;5281358;28;20020;-70
2023/05/18 00:11:44;;;;;;;8.02;0.70;;;;;;;;;;5281019;28;20398;-70
2023/05/18 00:14:16;;;;;;;7.15;0.77;;;;;;;;;;5280822;28;20091;-70
2023/05/18 00:16:47;;;;;;;3.92;0.85;;;;;;;;;;5280987;28;20028;-71
2023/05/18 00:19:19;;;;;;;5.72;0.73;;;;;;;;;;5281631;28;20046;-71
2023/05/18 00:21:51;;;;;;;4.53;0.93;;;;;;;;;;5279817;28;20040;-71
2023/05/18 00:24:22;;;;;;;5.50;1.33;;;;;;;;;;5281980;28;20092;-70
2023/05/18 00:26:54;;;;;;;7.80;0.70;;;;;;;;;;5284452;28;20027;-71
2023/05/18 00:29:25;;;;;;;6.45;0.80;;;;;;;;;;5284388;28;20070;-70
2023/05/18 00:31:56;;;;;;;6.75;1.00;;;;;;;;;;5284464;28;20131;-70
2023/05/18 00:34:27;;;;;;;4.50;0.90;;;;;;;;;;5284236;28;20017;-70
2023/05/18 00:36:58;;;;;;;8.48;1.20;;;;;;;;;;5284540;28;20025;-70
2023/05/18 00:39:30;;;;;;;3.33;0.60;;;;;;;;;;5284559;28;20032;-70
2023/05/18 00:42:01;;;;;;;6.53;0.80;;;;;;;;;;5283700;28;20629;-70
2023/05/18 00:44:32;;;;;;;6.10;0.73;;;;;;;;;;5284445;28;20024;-71
2023/05/18 00:47:03;;;;;;;4.78;0.68;;;;;;;;;;5284692;28;20468;-70
2023/05/18 00:49:35;;;;;;;4.00;0.77;;;;;;;;;;5283848;28;20024;-71
2023/05/18 00:52:06;;;;;;;3.33;0.70;;;;;;;;;;5284565;28;20026;-70
2023/05/18 00:54:37;;;;;;;4.55;0.70;;;;;;;;;;5284210;28;20024;-71
2023/05/18 00:57:08;;;;;;;4.90;0.75;;;;;;;;;;5283680;28;20051;-70
2023/05/18 00:59:40;;;;;;;5.55;1.10;;;;;;;;;;5283764;28;20040;-71
2023/05/18 01:02:13;;;;;;;3.95;0.60;;;;;;;;;;5284410;28;20039;-70
2023/05/18 01:04:44;;;;;;;5.80;0.65;;;;;;;;;;5283208;28;20096;-70
2023/05/18 01:07:15;;;;;;;7.93;0.73;;;;;;;;;;5284437;28;20099;-70
2023/05/18 01:09:47;;;;;;;4.95;0.63;;;;;;;;;;5282742;28;20033;-70
2023/05/18 01:12:23;;;;;;;5.28;0.70;;;;;;;;;;5284183;28;20482;-70
2023/05/18 01:15:03;;;;;;;2.88;0.80;;;;;;;;;;5283572;28;20023;-71
2023/05/18 01:17:35;;;;;;;6.97;0.65;;;;;;;;;;5283300;28;20028;-71
2023/05/18 01:20:28;;;;;;;6.43;1.02;;;;;;;;;;5283777;28;20025;-70
2023/05/18 01:23:28;;;;;;;6.50;1.00;;;;;;;;;;5283487;28;20032;-70
2023/05/18 01:26:28;;;;;;;8.30;0.90;;;;;;;;;;5267210;28;20025;-70
2023/05/18 01:29:01;;;;;;;6.45;1.35;;;;;;;;;;5279345;28;20438;-70
2023/05/18 01:31:33;;;;;;;5.32;0.80;;;;;;;;;;5282781;28;20021;-70
2023/05/18 01:34:04;;;;;;;9.35;0.90;;;;;;;;;;5283557;28;20030;-71
2023/05/18 01:36:36;;;;;;;8.25;0.80;;;;;;;;;;5283181;28;20046;-70
2023/05/18 01:39:08;;;;;;;6.10;0.70;;;;;;;;;;5282725;28;20082;-71
2023/05/18 01:41:44;;;;;;;5.88;0.73;;;;;;;;;;5283203;28;20016;-71
2023/05/18 01:44:18;;;;;;;5.90;0.70;;;;;;;;;;5283738;28;20024;-71
2023/05/18 01:46:56;;;;;;;6.88;0.70;;;;;;;;;;5282224;28;20031;-71
2023/05/18 01:49:32;;;;;;;5.38;0.90;;;;;;;;;;5283516;28;20017;-70
2023/05/18 01:52:08;;;;;;;6.32;1.05;;;;;;;;;;5282572;28;20031;-70
2023/05/18 01:54:41;;;;;;;6.25;1.00;;;;;;;;;;5282880;28;20423;-70
2023/05/18 01:57:13;;;;;;;6.05;0.93;;;;;;;;;;5283368;28;20017;-71
2023/05/18 01:59:45;;;;;;;5.28;0.98;;;;;;;;;;5281704;28;20093;-70
2023/05/18 02:02:16;;;;;;;4.88;0.88;;;;;;;;;;5283510;28;20017;-70
2023/05/18 02:04:48;;;;;;;5.05;1.05;;;;;;;;;;5282793;28;20020;-70
2023/05/18 02:07:19;;;;;;;6.18;0.70;;;;;;;;;;5282447;28;20016;-70
2023/05/18 02:09:50;;;;;;;5.22;0.80;;;;;;;;;;5282531;28;20353;-71
2023/05/18 02:12:21;;;;;;;8.52;1.00;;;;;;;;;;5282952;28;20063;-70
2023/05/18 02:14:54;;;;;;;8.43;1.55;;;;;;;;;;5281700;28;20021;-71
2023/05/18 02:17:25;;;;;;;3.75;0.68;;;;;;;;;;5283082;28;20422;-70
2023/05/18 02:19:56;;;;;;;3.78;0.75;;;;;;;;;;5281702;28;20077;-71
2023/05/18 02:22:27;;;;;;;5.15;0.73;;;;;;;;;;5282739;28;20036;-70
2023/05/18 02:24:59;;;;;;;3.85;0.85;;;;;;;;;;5282441;28;20087;-70
2023/05/18 02:27:31;;;;;;;5.53;0.70;;;;;;;;;;5281783;28;20161;-71
2023/05/18 02:30:07;;;;;;;5.32;0.80;;;;;;;;;;5282602;28;20099;-70
2023/05/18 02:32:38;;;;;;;5.50;0.70;;;;;;;;;;5282154;28;20464;-70
2023/05/18 02:35:10;;;;;;;6.43;0.82;;;;;;;;;;5281742;28;20046;-70
2023/05/18 02:37:42;;;;;;;5.53;1.10;;;;;;;;;;5282194;28;20099;-71
2023/05/18 02:40:14;;;;;;;3.22;1.10;;;;;;;;;;5282705;28;20012;-71
2023/05/18 02:42:46;;;;;;;3.85;0.98;;;;;;;;;;5280977;28;20035;-71
2023/05/18 02:45:19;;;;;;;5.82;0.77;;;;;;;;;;5282367;28;20024;-70
2023/05/18 02:47:50;;;;;;;4.22;0.70;;;;;;;;;;5281164;28;20020;-70
2023/05/18 02:50:21;;;;;;;7.15;0.68;;;;;;;;;;5281632;28;20017;-70
2023/05/18 02:52:54;;;;;;;4.60;0.93;;;;;;;;;;5281801;28;20039;-71
2023/05/18 02:55:27;;;;;;;5.35;0.90;;;;;;;;;;5281532;28;20024;-70
2023/05/18 02:57:59;;;;;;;5.00;0.85;;;;;;;;;;5281428;28;20040;-71
2023/05/18 03:00:30;;;;;;;5.22;0.80;;;;;;;;;;5282148;28;20017;-71
2023/05/18 03:03:01;;;;;;;3.85;0.80;;;;;;;;;;5281025;28;20030;-71
2023/05/18 03:05:33;;;;;;;3.88;0.70;;;;;;;;;;5281982;28;20515;-71
2023/05/18 03:08:04;;;;;;;5.55;0.90;;;;;;;;;;5281859;28;20471;-71
2023/05/18 03:10:36;;;;;;;3.53;0.85;;;;;;;;;;5281003;28;20479;-71
2023/05/18 03:13:07;;;;;;;6.38;0.80;;;;;;;;;;5281717;28;20029;-70
2023/05/18 03:15:39;;;;;;;5.22;1.00;;;;;;;;;;5281526;28;20467;-71
2023/05/18 03:18:11;;;;;;;3.95;0.70;;;;;;;;;;5281498;28;20017;-71
2023/05/18 03:20:43;;;;;;;6.30;0.80;;;;;;;;;;5281755;28;20024;-70
2023/05/18 03:23:14;;;;;;;9.30;1.45;;;;;;;;;;5281094;28;20107;-70
2023/05/18 03:25:45;;;;;;;3.67;0.80;;;;;;;;;;5281485;28;20024;-70
2023/05/18 03:28:16;;;;;;;4.57;0.80;;;;;;;;;;5281963;28;20024;-70
2023/05/18 03:30:48;;;;;;;5.68;0.80;;;;;;;;;;5280501;28;20025;-71
2023/05/18 03:33:19;;;;;;;4.93;0.80;;;;;;;;;;5281753;28;20024;-70
2023/05/18 03:35:51;;;;;;;4.15;0.80;;;;;;;;;;5281119;28;20021;-70
2023/05/18 03:38:22;;;;;;;6.80;0.88;;;;;;;;;;5281097;28;20028;-70
2023/05/18 03:40:54;;;;;;;4.60;0.90;;;;;;;;;;5281027;28;20027;-70
2023/05/18 03:43:25;;;;;;;6.00;1.20;;;;;;;;;;5281529;28;20379;-71
2023/05/18 03:45:57;;;;;;;4.40;1.23;;;;;;;;;;5280107;28;20020;-71
2023/05/18 03:48:28;;;;;;;5.80;0.90;;;;;;;;;;5281899;28;20024;-71
2023/05/18 03:50:59;;;;;;;7.72;1.08;;;;;;;;;;5281224;28;20036;-71
2023/05/18 03:53:32;;;;;;;6.10;0.98;;;;;;;;;;5280495;28;20020;-71
2023/05/18 03:56:03;;;;;;;4.97;1.02;;;;;;;;;;5281254;28;20383;-70
2023/05/18 03:58:35;;;;;;;6.45;1.15;;;;;;;;;;5280239;28;20049;-70
2023/05/18 04:01:07;;;;;;;5.78;0.90;;;;;;;;;;5284418;28;20025;-70
2023/05/18 04:03:39;;;;;;;4.72;1.27;;;;;;;;;;5284668;28;20074;-71
2023/05/18 04:06:10;;;;;;;3.88;0.80;;;;;;;;;;5284763;28;20462;-70
2023/05/18 04:08:42;;;;;;;5.66;0.76;;;;;;;;;;5284841;28;20104;-71
2023/05/18 04:11:13;;;;;;;4.35;0.73;;;;;;;;;;5285610;28;20055;-71
2023/05/18 04:13:44;;;;;;;5.53;0.93;;;;;;;;;;5284086;28;20350;-71
2023/05/18 04:16:15;;;;;;;3.30;0.90;;;;;;;;;;5285193;28;20044;-70
2023/05/18 04:18:47;;;;;;;4.82;0.90;;;;;;;;;;5284640;28;20383;-70
2023/05/18 04:21:18;;;;;;;5.63;1.65;;;;;;;;;;5284398;28;20099;-70
2023/05/18 04:23:49;;;;;;;10.90;1.30;;;;;;;;;;5284353;28;20115;-70
2023/05/18 04:26:20;;;;;;;8.50;1.23;;;;;;;;;;5285195;28;20491;-71
2023/05/18 04:28:52;;;;;;;8.70;1.30;;;;;;;;;;5283876;28;20036;-70
2023/05/18 04:31:25;;;;;;;5.97;1.13;;;;;;;;;;5285587;28;20036;-70
2023/05/18 04:33:57;;;;;;;4.38;1.15;;;;;;;;;;5283452;28;20016;-70
2023/05/18 04:36:33;;;;;;;4.22;1.13;;;;;;;;;;5285175;28;20013;-70
2023/05/18 04:39:06;;;;;;;6.53;0.75;;;;;;;;;;5284544;28;20017;-70
2023/05/18 04:41:40;;;;;;;7.60;1.25;;;;;;;;;;5283414;28;20044;-71
2023/05/18 04:44:12;;;;;;;5.30;1.10;;;;;;;;;;5284600;28;20032;-70
2023/05/18 04:46:46;;;;;;;5.22;1.02;;;;;;;;;;5283988;28;20023;-70
2023/05/18 04:49:20;;;;;;;7.15;0.93;;;;;;;;;;5284058;28;20020;-70
2023/05/18 04:51:54;;;;;;;6.65;1.48;;;;;;;;;;5284216;28;20482;-70
2023/05/18 04:54:29;;;;;;;6.82;1.27;;;;;;;;;;5284430;28;20032;-70
2023/05/18 04:57:02;;;;;;;6.30;0.98;;;;;;;;;;5283635;28;20016;-70
2023/05/18 04:59:35;;;;;;;8.73;1.63;;;;;;;;;;5284019;28;20126;-71
2023/05/18 05:02:07;;;;;;;8.77;1.60;;;;;;;;;;5283382;28;20021;-70
2023/05/18 05:04:38;;;;;;;6.78;1.05;;;;;;;;;;5283733;28;20025;-70
2023/05/18 05:07:09;;;;;;;10.27;2.08;;;;;;;;;;5284289;28;20455;-70
2023/05/18 05:09:40;;;;;;;4.95;1.20;;;;;;;;;;5283167;28;20044;-70
2023/05/18 05:12:12;;;;;;;5.50;0.93;;;;;;;;;;5283725;28;20055;-70
2023/05/18 05:14:43;;;;;;;9.63;1.10;;;;;;;;;;5283598;28;20027;-70
2023/05/18 05:17:14;;;;;;;6.38;1.17;;;;;;;;;;5283358;28;20055;-70
2023/05/18 05:19:45;;;;;;;7.75;1.25;;;;;;;;;;5283346;28;20013;-70
2023/05/18 05:22:18;;;;;;;6.18;1.10;;;;;;;;;;5284199;28;20029;-70
2023/05/18 05:24:49;;;;;;;7.47;1.42;;;;;;;;;;5282786;28;20059;-70
2023/05/18 05:27:22;;;;;;;4.13;1.00;;;;;;;;;;5283898;28;20016;-70
2023/05/18 05:29:53;;;;;;;8.25;2.38;;;;;;;;;;5282493;28;20028;-70
2023/05/18 05:32:24;;;;;;;5.13;1.10;;;;;;;;;;5283675;28;20031;-70
2023/05/18 05:34:55;;;;;;;8.48;1.70;;;;;;;;;;5283051;28;20024;-70
2023/05/18 05:37:27;;;;;;;9.63;1.52;;;;;;;;;;5283046;28;20519;-70
2023/05/18 05:39:58;;;;;;;6.18;1.65;;;;;;;;;;5282922;28;20028;-70
2023/05/18 05:42:29;;;;;;;10.00;1.83;;;;;;;;;;5283089;28;20028;-70
2023/05/18 05:45:00;;;;;;;7.88;1.80;;;;;;;;;;5282669;28;20039;-70
2023/05/18 05:47:32;;;;;;;7.65;1.73;;;;;;;;;;5282994;28;20078;-70
2023/05/18 05:50:03;;;;;;;7.90;1.75;;;;;;;;;;5283271;28;20452;-71
2023/05/18 05:52:34;;;;;;;12.68;2.78;;;;;;;;;;5282303;28;20394;-71
2023/05/18 05:55:06;;;;;;;9.30;2.05;;;;;;;;;;5283052;28;20042;-71
2023/05/18 05:57:41;;;;;;;9.38;1.98;;;;;;;;;;5282683;28;20028;-71
2023/05/18 06:00:12;;;;;;;12.13;2.13;;;;;;;;;;5282484;28;20032;-70
2023/05/18 06:02:43;;;;;;;6.70;1.70;;;;;;;;;;5282448;28;20033;-71
2023/05/18 06:05:15;;;;;;;8.07;2.05;;;;;;;;;;5282386;28;20013;-71
2023/05/18 06:07:46;;;;;;;7.50;1.94;;;;;;;;;;5282413;28;20031;-71
2023/05/18 06:10:18;;;;;;;9.40;1.83;;;;;;;;;;5282906;28;20051;-71
2023/05/18 06:12:49;;;;;;;7.57;1.50;;;;;;;;;;5281568;28;20033;-71
2023/05/18 06:15:20;;;;;;;10.60;2.00;;;;;;;;;;5282950;28;20020;-71
2023/05/18 06:17:51;;;;;;;13.20;2.70;;;;;;;;;;5282152;28;20103;-71
2023/05/18 06:20:22;;;;;;;12.27;3.00;;;;;;;;;;5281993;28;20028;-71
2023/05/18 06:22:55;;;;;;;8.30;1.83;;;;;;;;;;5282139;28;20050;-71
2023/05/18 06:25:26;;;;;;;8.55;1.90;;;;;;;;;;5282779;28;20048;-71
2023/05/18 06:27:57;;;;;;;8.00;2.03;;;;;;;;;;5281150;28;20048;-71
2023/05/18 06:30:28;;;;;;;6.18;1.60;;;;;;;;;;5282478;28;20025;-71
2023/05/18 06:33:00;;;;;;;8.13;1.73;;;;;;;;;;5281345;28;20031;-71
2023/05/18 06:35:31;;;;;;;9.18;1.88;;;;;;;;;;5282247;28;20036;-70
2023/05/18 06:38:03;;;;;;;12.50;2.42;;;;;;;;;;5282254;28;20020;-70
2023/05/18 06:40:34;;;;;;;8.25;1.60;;;;;;;;;;5281493;28;20383;-71
2023/05/18 06:43:05;;;;;;;9.48;2.70;;;;;;;;;;5273204;28;20036;-71
2023/05/18 06:45:36;;;;;;;11.55;2.15;;;;;;;;;;5278879;28;20025;-71
2023/05/18 06:48:07;;;;;;;7.88;2.12;;;;;;;;;;5280965;28;20517;-70
2023/05/18 06:50:39;;;;;;;5.55;1.83;;;;;;;;;;5281589;28;20451;-71
2023/05/18 06:53:10;;;;;;;11.32;2.13;;;;;;;;;;5282167;28;20024;-70
2023/05/18 06:55:41;;;;;;;7.13;2.00;;;;;;;;;;5279165;28;20021;-71
2023/05/18 06:58:12;;;;;;;7.00;1.67;;;;;;;;;;5281089;28;20091;-70
2023/05/18 07:00:44;;;;;;;7.03;1.63;;;;;;;;;;5281470;28;20013;-70
2023/05/18 07:03:15;;;;;;;7.22;2.05;;;;;;;;;;5281264;28;20036;-71
2023/05/18 07:05:46;;;;;;;9.38;1.67;;;;;;;;;;5280556;28;20020;-70
2023/05/18 07:08:17;;;;;;;8.88;1.42;;;;;;;;;;5281129;28;20383;-70
2023/05/18 07:10:49;;;;;;;8.95;2.38;;;;;;;;;;5281322;28;20020;-69
2023/05/18 07:13:20;;;;;;;12.32;1.85;;;;;;;;;;5281740;28;20024;-69
2023/05/18 07:15:51;;;;;;;7.47;1.50;;;;;;;;;;5280521;28;20451;-69
2023/05/18 07:18:22;;;;;;;7.13;1.58;;;;;;;;;;5281704;28;20491;-70
2023/05/18 07:20:54;;;;;;;5.63;1.92;;;;;;;;;;5281456;28;20357;-69
2023/05/18 07:23:25;;;;;;;8.88;1.73;;;;;;;;;;5281150;28;20025;-70
2023/05/18 07:25:56;;;;;;;6.43;2.00;;;;;;;;;;5281285;28;20064;-70
2023/05/18 07:28:27;;;;;;;6.53;1.20;;;;;;;;;;5281516;28;20033;-69
2023/05/18 07:30:58;;;;;;;8.75;2.15;;;;;;;;;;5280351;28;20388;-70
2023/05/18 07:33:30;;;;;;;7.72;1.60;;;;;;;;;;5281406;28;20036;-71
2023/05/18 07:36:01;;;;;;;5.38;1.17;;;;;;;;;;5284764;28;20048;-70
2023/05/18 07:38:32;;;;;;;5.97;1.80;;;;;;;;;;5284865;28;20028;-71
2023/05/18 07:41:04;;;;;;;11.57;2.35;;;;;;;;;;5285553;28;20032;-71
2023/05/18 07:43:35;;;;;;;10.25;1.55;;;;;;;;;;5284641;28;20032;-70
2023/05/18 07:46:06;;;;;;;5.80;1.20;;;;;;;;;;5285479;28;20028;-70
2023/05/18 07:48:37;;;;;;;7.15;1.92;;;;;;;;;;5284933;28;20028;-70
2023/05/18 07:51:08;;;;;;;6.82;1.38;;;;;;;;;;5284544;28;20024;-69
2023/05/18 07:53:40;;;;;;;8.80;1.60;;;;;;;;;;5284605;28;20286;-69
2023/05/18 07:56:12;;;;;;;7.90;1.65;;;;;;;;;;5285244;28;20021;-70
2023/05/18 07:58:43;;;;;;;11.13;2.13;;;;;;;;;;5284005;28;20059;-71
2023/05/18 08:01:14;;;;;;;5.68;1.73;;;;;;;;;;5285679;28;20453;-70
2023/05/18 08:03:46;;;;;;;8.43;2.10;;;;;;;;;;5284549;28;20101;-70
2023/05/18 08:06:17;;;;;;;7.74;1.82;;;;;;;;;;5284584;28;20028;-70
2023/05/18 08:08:48;;;;;;;4.88;2.10;;;;;;;;;;5285025;28;20377;-71
2023/05/18 08:11:20;;;;;;;7.43;1.88;;;;;;;;;;5285421;28;20020;-70
2023/05/18 08:13:51;;;;;;;5.90;1.80;;;;;;;;;;5283842;28;20096;-71
2023/05/18 08:16:23;;;;;;;7.65;1.60;;;;;;;;;;5285109;28;20526;-71
2023/05/18 08:18:54;;;;;;;8.55;1.67;;;;;;;;;;5283550;28;20024;-70
2023/05/18 08:21:25;;;;;;;8.63;1.70;;;;;;;;;;5285090;28;20109;-70
2023/05/18 08:23:56;;;;;;;8.60;1.98;;;;;;;;;;5284660;28;20150;-70
2023/05/18 08:26:28;;;;;;;8.90;1.95;;;;;;;;;;5284433;28;20020;-71
2023/05/18 08:28:59;;;;;;;6.00;1.30;;;;;;;;;;5284358;28;20404;-71
2023/05/18 08:31:30;;;;;;;10.13;1.70;;;;;;;;;;5284599;28;20464;-71
2023/05/18 08:34:02;;;;;;;6.68;1.75;;;;;;;;;;5283470;28;20023;-71
2023/05/18 08:36:34;;;;;;;9.90;1.38;;;;;;;;;;5283898;28;20489;-71
2023/05/18 08:39:08;;;;;;;6.25;1.05;;;;;;;;;;5284186;28;20024;-71
2023/05/18 08:41:41;;;;;;;7.85;2.40;;;;;;;;;;5283247;28;20091;-72
2023/05/18 08:44:15;;;;;;;10.23;2.13;;;;;;;;;;5285023;28;20418;-71
2023/05/18 08:46:49;;;;;;;5.97;1.35;;;;;;;;;;5281940;28;20516;-71
2023/05/18 08:49:21;;;;;;;7.80;1.30;;;;;;;;;;5284513;28;20031;-73
2023/05/18 08:51:56;;;;;;;7.00;1.23;;;;;;;;;;5283364;28;20092;-73
2023/05/18 08:54:29;;;;;;;8.23;1.10;;;;;;;;;;5282058;28;20016;-73
2023/05/18 08:57:01;;;;;;;5.32;0.88;;;;;;;;;;5283224;28;20095;-73
2023/05/18 08:59:34;;;;;;;6.78;1.02;;;;;;;;;;5283269;28;20087;-71
2023/05/18 09:02:05;;;;;;;7.18;1.35;;;;;;;;;;5282537;28;20036;-72
2023/05/18 09:04:37;;;;;;;9.02;1.10;;;;;;;;;;5283168;28;20032;-72
2023/05/18 09:07:09;;;;;;;6.53;1.00;;;;;;;;;;5283514;28;20019;-72
2023/05/18 09:09:40;;;;;;;6.85;1.17;;;;;;;;;;5282974;28;20318;-71
2023/05/18 09:12:12;;;;;;;4.95;1.23;;;;;;;;;;5284382;28;20082;-71
2023/05/18 09:14:45;;;;;;;7.13;1.10;;;;;;;;;;5283321;28;20372;-72
2023/05/18 09:17:16;;;;;;;7.07;1.02;;;;;;;;;;5283977;28;20019;-72
2023/05/18 09:19:47;;;;;;;6.60;1.10;;;;;;;;;;5283532;28;20012;-71
2023/05/18 09:22:18;;;;;;;7.97;1.20;;;;;;;;;;5283203;28;20332;-72
2023/05/18 09:24:49;;;;;;;8.07;1.33;;;;;;;;;;5283466;28;20282;-71
2023/05/18 09:27:21;;;;;;;7.68;1.40;;;;;;;;;;5283959;28;20023;-72
2023/05/18 09:29:53;;;;;;;5.65;0.90;;;;;;;;;;5282445;28;20419;-72
2023/05/18 09:32:25;;;;;;;5.32;1.00;;;;;;;;;;5284016;28;20074;-72
2023/05/18 09:35:02;;;;;;;4.38;0.90;;;;;;;;;;5283075;28;20024;-72
2023/05/18 09:37:33;;;;;;;8.85;1.02;;;;;;;;;;5282669;28;20032;-72
2023/05/18 09:40:05;;;;;;;4.65;0.90;;;;;;;;;;5283316;28;20024;-72
2023/05/18 09:42:36;;;;;;;4.35;0.80;;;;;;;;;;5283491;28;20063;-72
2023/05/18 09:45:22;;;;;;;6.82;1.25;;;;;;;;;;5282511;28;20100;-72
2023/05/18 09:47:53;;;;;;;7.35;1.08;;;;;;;;;;5282671;28;20024;-72
2023/05/18 09:50:25;;;;;;;7.28;1.30;;;;;;;;;;5282424;28;20024;-72
2023/05/18 09:52:56;;;;;;;5.55;1.05;;;;;;;;;;5282856;28;20039;-72
2023/05/18 09:55:27;;;;;;;8.10;1.23;;;;;;;;;;5283173;28;20017;-72
2023/05/18 09:58:01;;;;;;;6.07;1.13;;;;;;;;;;5281377;28;20431;-72
2023/05/18 10:00:35;;;;;;;7.10;0.90;;;;;;;;;;5282867;28;20258;-73
2023/05/18 10:03:15;;;;;;;6.40;1.00;;;;;;;;;;5282617;28;20025;-72
2023/05/18 10:05:47;;;;;;;6.65;1.40;;;;;;;;;;5281856;28;20016;-72
2023/05/18 10:08:18;;;;;;;7.83;0.93;;;;;;;;;;5283288;28;20020;-72
2023/05/18 10:10:49;;;;;;;5.85;1.02;;;;;;;;;;5282455;28;20266;-72
2023/05/18 10:13:24;;;;;;;7.15;0.93;;;;;;;;;;5282269;28;20070;-72
2023/05/18 10:15:55;;;;;;;5.10;1.05;;;;;;;;;;5282473;28;20024;-72
2023/05/18 10:18:27;;;;;;;7.05;1.38;;;;;;;;;;5282128;28;20027;-72
2023/05/18 10:20:59;;;;;;;4.97;1.25;;;;;;;;;;5282216;28;20020;-72
2023/05/18 10:23:31;;;;;;;5.97;0.90;;;;;;;;;;5282170;28;20036;-71
2023/05/18 10:26:03;;;;;;;6.05;1.27;;;;;;;;;;5281682;28;20478;-71
2023/05/18 10:28:37;;;;;;;8.07;1.10;;;;;;;;;;5282220;28;20066;-70
2023/05/18 10:31:09;;;;;;;7.25;1.10;;;;;;;;;;5282512;28;20024;-69
2023/05/18 10:33:40;;;;;;;5.45;1.00;;;;;;;;;;5281058;28;20013;-70
2023/05/18 10:36:12;;;;;;;8.00;1.13;;;;;;;;;;5282167;28;20032;-70
2023/05/18 10:38:44;;;;;;;8.02;1.85;;;;;;;;;;5281730;28;20275;-70
2023/05/18 10:41:17;;;;;;;7.28;1.05;;;;;;;;;;5281529;28;20024;-70
2023/05/18 10:43:48;;;;;;;7.55;1.10;;;;;;;;;;5281521;28;20489;-69
2023/05/18 10:46:25;;;;;;;6.57;1.23;;;;;;;;;;5281485;28;20057;-70
2023/05/18 10:48:57;;;;;;;8.52;1.17;;;;;;;;;;5281664;28;20295;-70
2023/05/18 10:51:30;;;;;;;9.88;1.40;;;;;;;;;;5282434;28;20487;-69
2023/05/18 10:54:09;;;;;;;8.23;1.27;;;;;;;;;;5281292;28;20021;-69
2023/05/18 10:56:42;;;;;;;3.72;0.88;;;;;;;;;;5281611;28;20124;-70
2023/05/18 10:59:13;;;;;;;6.55;0.95;;;;;;;;;;5281766;28;20052;-70
2023/05/18 11:01:46;;;;;;;8.27;1.40;;;;;;;;;;5280511;28;20529;-69
2023/05/18 11:04:25;;;;;;;4.82;1.48;;;;;;;;;;5282156;28;20336;-70
2023/05/18 11:07:00;;;;;;;5.05;0.90;;;;;;;;;;5281362;28;20125;-70
2023/05/18 11:09:32;;;;;;;7.85;1.55;;;;;;;;;;5279981;28;20097;-70
2023/05/18 11:12:09;;;;;;;5.90;1.35;;;;;;;;;;5281936;28;20099;-71
2023/05/18 11:14:48;;;;;;;6.78;1.27;;;;;;;;;;5280585;28;20099;-70
2023/05/18 11:17:24;;;;;;;5.63;1.30;;;;;;;;;;5282028;28;20089;-70
2023/05/18 11:20:04;;;;;;;10.15;1.88;;;;;;;;;;5281134;28;20024;-71
2023/05/18 11:22:43;;;;;;;5.50;1.42;;;;;;;;;;5280854;28;20416;-70
2023/05/18 11:25:24;;;;;;;5.57;1.45;;;;;;;;;;5281941;28;20020;-70
2023/05/18 11:28:00;;;;;;;7.53;1.33;;;;;;;;;;5281060;28;20108;-70
2023/05/18 11:30:31;;;;;;;5.38;1.17;;;;;;;;;;5280743;28;20467;-70
2023/05/18 11:33:09;;;;;;;4.60;1.38;;;;;;;;;;5281735;28;20107;-71
2023/05/18 11:35:59;;;;;;;6.13;1.27;;;;;;;;;;5280560;28;20286;-70
2023/05/18 11:38:49;;;;;;;6.40;1.50;;;;;;;;;;5281419;28;20047;-71
2023/05/18 11:41:27;;;;;;;3.92;1.10;;;;;;;;;;5282022;28;20021;-70
2023/05/18 11:44:10;;;;;;;5.78;1.45;;;;;;;;;;5280490;28;20040;-70
2023/05/18 11:47:00;;;;;;;7.93;2.05;;;;;;;;;;5281010;28;20032;-69
2023/05/18 11:49:35;;;;;;;6.25;2.03;;;;;;;;;;5280771;28;20078;-70
2023/05/18 11:52:07;;;;;;;6.00;2.05;;;;;;;;;;5281355;28;20459;-70
2023/05/18 11:54:41;;;;;;;6.28;1.70;;;;;;;;;;5281069;28;20036;-70
2023/05/18 11:57:13;;;;;;;6.60;1.50;;;;;;;;;;5280892;28;20020;-70
2023/05/18 11:59:45;;;;;;;6.78;1.65;;;;;;;;;;5280614;28;20044;-70
2023/05/18 12:02:20;;;;;;;9.98;1.77;;;;;;;;;;5281296;28;20051;-70
2023/05/18 12:04:53;;;;;;;4.38;1.10;;;;;;;;;;5280013;28;20028;-69
2023/05/18 12:07:24;;;;;;;5.45;1.25;;;;;;;;;;5281284;28;20028;-69
2023/05/18 12:10:00;;;;;;;5.95;1.40;;;;;;;;;;5280690;28;20091;-69
2023/05/18 12:12:32;;;;;;;9.80;1.80;;;;;;;;;;5280320;28;20447;-70
2023/05/18 12:15:05;;;;;;;7.63;1.27;;;;;;;;;;5280899;28;20047;-72
2023/05/18 12:17:40;;;;;;;6.28;1.20;;;;;;;;;;5280399;28;20055;-70
2023/05/18 12:20:12;;;;;;;6.18;1.65;;;;;;;;;;5281274;28;20020;-70
2023/05/18 12:22:45;;;;;;;7.53;1.40;;;;;;;;;;5284459;28;20036;-70
2023/05/18 12:25:16;;;;;;;11.15;1.48;;;;;;;;;;5284288;28;20020;-70
2023/05/18 12:27:48;;;;;;;5.75;1.30;;;;;;;;;;5284685;28;20432;-70
2023/05/18 12:30:20;;;;;;;6.15;1.80;;;;;;;;;;5285070;28;20020;-70
2023/05/18 12:32:55;;;;;;;6.80;1.27;;;;;;;;;;5283457;28;20066;-70
2023/05/18 12:35:27;;;;;;;10.77;2.55;;;;;;;;;;5285051;28;20020;-70
2023/05/18 12:38:00;;;;;;;7.22;1.35;;;;;;;;;;5284089;28;20028;-70
2023/05/18 12:40:45;;;;;;;9.77;1.88;;;;;;;;;;5283603;28;20008;-70
2023/05/18 12:43:16;;;;;;;8.20;1.70;;;;;;;;;;5284742;28;20532;-70
2023/05/18 12:45:48;;;;;;;7.32;1.98;;;;;;;;;;5283108;28;20017;-70
2023/05/18 12:48:25;;;;;;;9.25;2.00;;;;;;;;;;5284732;28;20050;-70
2023/05/18 12:50:56;;;;;;;5.93;1.90;;;;;;;;;;5283839;28;20016;-70
2023/05/18 12:53:38;;;;;;;5.95;1.95;;;;;;;;;;5283784;28;20031;-70
2023/05/18 12:56:11;;;;;;;5.75;1.48;;;;;;;;;;5284650;28;20059;-71
2023/05/18 12:58:55;;;;;;;6.15;1.52;;;;;;;;;;5283961;28;20048;-70
2023/05/18 13:01:26;;;;;;;6.38;1.63;;;;;;;;;;5283360;28;20039;-70
2023/05/18 13:03:58;;;;;;;7.18;2.00;;;;;;;;;;5283455;28;20036;-71
2023/05/18 13:06:29;;;;;;;8.07;1.98;;;;;;;;;;5283946;28;20390;-71
2023/05/18 13:09:00;;;;;;;7.90;1.45;;;;;;;;;;5282512;28;20047;-70
2023/05/18 13:11:31;;;;;;;9.10;2.03;;;;;;;;;;5283943;28;20363;-70
2023/05/18 13:14:04;;;;;;;6.00;1.85;;;;;;;;;;5283040;28;20103;-69
2023/05/18 13:16:40;;;;;;;10.25;2.03;;;;;;;;;;5283849;28;20009;-69
2023/05/18 13:19:15;;;;;;;9.55;1.67;;;;;;;;;;5284000;28;20060;-69
2023/05/18 13:21:53;;;;;;;9.48;1.70;;;;;;;;;;5282553;28;20030;-69
2023/05/18 13:24:25;;;;;;;;;;;;;;;;;;5275264;28;20029;-69
2023/05/18 13:26:56;;;;;;;9.73;1.35;;;;;;;;;;5266484;28;19915;-70
2023/05/18 13:29:27;;;;;;;5.55;1.45;;;;;;;;;;5260586;28;20496;-70
2023/05/18 13:31:58;;;;;;;7.40;1.35;;;;;;;;;;5260728;28;20754;-71
2023/05/18 13:34:29;;;;;;;6.17;1.80;;;;;;;;;;5261470;28;20025;-70
2023/05/18 13:37:00;;;;;;;7.17;2.10;;;;;;;;;;5261013;28;20266;-70
2023/05/18 13:39:32;;;;;;;5.80;1.20;;;;;;;;;;5261493;28;20276;-71
2023/05/18 13:42:03;;;;;;;6.40;1.60;;;;;;;;;;5261023;28;20272;-71
2023/05/18 13:44:34;;;;;;;7.15;1.33;;;;;;;;;;5261297;28;20271;-70
2023/05/18 13:47:06;;;;;;;7.78;1.63;;;;;;;;;;5260921;28;20021;-70
2023/05/18 13:49:37;;;;;;;6.20;1.30;;;;;;;;;;5260510;28;20484;-72
2023/05/18 13:52:08;;;;;;;8.68;1.30;;;;;;;;;;5261490;28;20059;-70
2023/05/18 13:54:39;;;;;;;8.93;1.30;;;;;;;;;;5260497;28;20417;-69
2023/05/18 13:57:10;;;;;;;6.25;1.40;;;;;;;;;;5260650;28;20276;-70
2023/05/18 13:59:42;;;;;;;8.13;1.40;;;;;;;;;;5260762;28;20404;-71
2023/05/18 14:02:13;;;;;;;6.35;1.52;;;;;;;;;;5261440;28;20029;-71
2023/05/18 14:04:44;;;;;;;5.32;1.10;;;;;;;;;;5259978;28;20379;-72
2023/05/18 14:07:15;;;;;;;8.47;1.23;;;;;;;;;;5261298;28;20042;-72
2023/05/18 14:09:47;;;;;;;6.72;1.33;;;;;;;;;;5260884;28;20271;-70
2023/05/18 14:12:18;;;;;;;6.63;1.40;;;;;;;;;;5260927;28;20048;-70
2023/05/18 14:14:49;;;;;;;6.60;1.00;;;;;;;;;;5268136;28;20111;-71
2023/05/18 14:17:20;;;;;;;6.57;1.83;;;;;;;;;;5267579;28;20417;-72
2023/05/18 14:19:52;;;;;;;4.18;1.23;;;;;;;;;;5259659;28;20100;-70
2023/05/18 14:22:24;;;;;;;7.43;1.30;;;;;;;;;;5260695;28;20060;-71
2023/05/18 14:24:56;;;;;;;4.75;1.25;;;;;;;;;;5268718;28;20600;-70
2023/05/18 14:27:27;;;;;;;5.95;1.00;;;;;;;;;;5279767;28;20020;-70
2023/05/18 14:29:59;;;;;;;5.28;0.85;;;;;;;;;;5281174;28;20040;-70
2023/05/18 14:32:30;;;;;;;9.63;1.33;;;;;;;;;;5280510;28;20024;-71
2023/05/18 14:35:01;;;;;;;7.88;1.17;;;;;;;;;;5280907;28;20388;-70
2023/05/18 14:37:32;;;;;;;5.47;1.50;;;;;;;;;;5281422;28;20028;-71
2023/05/18 14:40:04;;;;;;;5.57;1.05;;;;;;;;;;5280243;28;20016;-71
2023/05/18 14:42:35;;;;;;;8.07;1.30;;;;;;;;;;5280872;28;20164;-71
2023/05/18 14:45:07;;;;;;;6.57;1.50;;;;;;;;;;5281428;28;20410;-71
2023/05/18 14:47:38;;;;;;;6.82;1.42;;;;;;;;;;5280044;28;20056;-71
2023/05/18 14:50:09;;;;;;;6.33;1.40;;;;;;;;;;5280976;28;20095;-71
2023/05/18 14:52:40;;;;;;;6.00;1.45;;;;;;;;;;5279815;28;20278;-71
2023/05/18 14:55:12;;;;;;;5.80;1.38;;;;;;;;;;5281449;28;20346;-71
2023/05/18 14:57:43;;;;;;;6.60;1.20;;;;;;;;;;5280452;28;20025;-71
2023/05/18 15:00:14;;;;;;;8.93;1.50;;;;;;;;;;5280885;28;20255;-71
2023/05/18 15:02:46;;;;;;;5.55;1.05;;;;;;;;;;5280413;28;20085;-71
2023/05/18 15:05:17;;;;;;;7.03;1.50;;;;;;;;;;5280817;28;20024;-71
2023/05/18 15:07:48;;;;;;;5.53;1.08;;;;;;;;;;5279809;28;20631;-71
2023/05/18 15:10:22;;;;;;;5.23;1.20;;;;;;;;;;5282245;28;20017;-71
2023/05/18 15:12:53;;;;;;;7.85;1.23;;;;;;;;;;5281292;28;20265;-70
2023/05/18 15:15:24;;;;;;;3.05;0.95;;;;;;;;;;5281200;28;20379;-71